Time;durP1;ratioP1;P1;durP2;ratioP2;P2;SDS_P1;SDS_P2;PMS_P1;PMS_P2;Temp;Humidity;BMP_temperature;BMP_pressure;BME280_temperature;BME280_humidity;BME280_pressure;Samples;Min_cycle;Max_cycle;Signal;HPM_P1;HPM_P2
2022/05/01 00:04:03;;;;;;;8.85;6.78;;;;;;;19.49;37.97;97119.50;10312419;28;20120;-52
2022/05/01 00:09:23;;;;;;;7.97;6.30;;;;;;;19.47;38.21;97119.81;10310543;28;20054;-52
2022/05/01 00:14:45;;;;;;;8.43;6.53;;;;;;;19.46;38.29;97123.59;10303800;28;20055;-52
2022/05/01 00:20:05;;;;;;;8.32;6.43;;;;;;;19.46;38.22;97122.81;10321199;28;20062;-50
2022/05/01 00:25:25;;;;;;;9.70;6.65;;;;;;;19.44;38.21;97123.13;10312674;28;20065;-52
2022/05/01 00:30:45;;;;;;;8.10;6.35;;;;;;;19.43;38.46;97118.84;10325745;28;20062;-52
2022/05/01 00:41:46;;;;;;;7.53;6.13;;;;;;;19.42;38.24;97119.16;10326047;28;20053;-53
2022/05/01 00:47:06;;;;;;;8.48;6.45;;;;;;;19.41;38.06;97115.66;10350037;28;20065;-51
2022/05/01 00:52:25;;;;;;;8.10;6.57;;;;;;;19.41;38.06;97118.38;10326652;28;20081;-53
2022/05/01 00:57:47;;;;;;;8.48;6.35;;;;;;;19.39;37.94;97117.91;10324839;28;20599;-53
2022/05/01 01:03:06;;;;;;;9.68;6.45;;;;;;;19.38;37.91;97119.00;10319498;28;20043;-50
2022/05/01 01:08:26;;;;;;;8.02;6.55;;;;;;;19.36;37.83;97116.59;10326640;28;20105;-51
2022/05/01 01:13:49;;;;;;;9.13;6.88;;;;;;;19.37;37.82;97122.81;10328793;28;20101;-49
2022/05/01 01:19:09;;;;;;;10.38;5.97;;;;;;;19.36;37.86;97115.81;10323648;28;21002;-53
2022/05/01 01:24:29;;;;;;;8.98;6.22;;;;;;;19.35;38.01;97117.72;10311223;28;20580;-50
2022/05/01 01:35:27;;;;;;;10.53;6.60;;;;;;;19.34;37.90;97110.72;10320460;28;20054;-50
2022/05/01 01:40:49;;;;;;;7.32;6.20;;;;;;;19.33;37.71;97102.94;10314784;28;20426;-49
2022/05/01 01:46:09;;;;;;;9.00;6.70;;;;;;;19.31;37.67;97097.06;10327178;28;20050;-50
2022/05/01 01:51:28;;;;;;;8.73;6.47;;;;;;;19.30;37.73;97096.25;10320349;28;20053;-51
2022/05/01 01:56:47;;;;;;;8.85;6.75;;;;;;;19.31;37.81;97091.66;10325190;28;20117;-51
2022/05/01 02:02:08;;;;;;;7.63;6.32;;;;;;;19.30;37.62;97087.34;10316862;28;20042;-52
2022/05/01 02:07:30;;;;;;;9.45;5.88;;;;;;;19.29;37.65;97091.19;10314458;28;20055;-51
2022/05/01 02:12:50;;;;;;;6.72;5.95;;;;;;;19.28;37.73;97093.06;10325362;28;20053;-50
2022/05/01 02:18:09;;;;;;;8.55;6.80;;;;;;;19.27;37.81;97083.38;10326022;28;20053;-50
2022/05/01 02:23:29;;;;;;;9.23;6.65;;;;;;;19.27;37.78;97082.59;10326484;28;20077;-53
2022/05/01 02:28:48;;;;;;;8.77;6.80;;;;;;;19.25;37.70;97088.31;10333302;28;20454;-52
2022/05/01 02:34:09;;;;;;;7.85;6.50;;;;;;;19.25;37.75;97079.41;10321210;28;20088;-51
2022/05/01 02:39:28;;;;;;;9.20;6.70;;;;;;;19.23;37.80;97077.03;10305899;28;20093;-52
2022/05/01 02:44:48;;;;;;;7.40;6.53;;;;;;;19.23;37.76;97087.03;10311934;28;20450;-52
2022/05/01 02:50:08;;;;;;;9.18;6.55;;;;;;;19.22;37.90;97080.03;10317567;28;20043;-51
2022/05/01 02:55:28;;;;;;;8.48;6.53;;;;;;;19.23;37.79;97081.63;10319598;28;20417;-53
2022/05/01 03:00:48;;;;;;;8.13;6.40;;;;;;;19.24;37.80;97083.22;10304536;28;20108;-51
2022/05/01 03:06:08;;;;;;;6.78;6.05;;;;;;;19.26;37.74;97084.50;10318688;28;20057;-52
2022/05/01 03:11:27;;;;;;;7.60;6.30;;;;;;;19.26;37.76;97079.09;10302119;28;20109;-52
2022/05/01 03:16:47;;;;;;;8.30;6.80;;;;;;;19.27;37.69;97082.59;10333479;28;20038;-50
2022/05/01 03:22:15;;;;;;;7.45;6.45;;;;;;;19.28;37.62;97081.47;10327774;28;20034;-50
2022/05/01 03:27:35;;;;;;;9.07;6.50;;;;;;;19.28;37.70;97079.56;10305858;28;20059;-51
2022/05/01 03:32:54;;;;;;;7.80;6.55;;;;;;;19.27;37.78;97078.00;10310683;28;20077;-52
2022/05/01 03:38:17;;;;;;;7.75;6.47;;;;;;;19.28;37.52;97079.56;10305979;28;20058;-51
2022/05/01 03:43:37;;;;;;;8.82;6.85;;;;;;;19.29;37.65;97083.88;10324231;28;20049;-52
2022/05/01 03:48:57;;;;;;;8.48;7.03;;;;;;;19.27;37.44;97082.59;10331935;28;20532;-51
2022/05/01 03:54:20;;;;;;;7.38;6.43;;;;;;;19.22;37.50;97083.53;10314146;28;20125;-53
2022/05/01 03:59:39;;;;;;;7.50;6.18;;;;;;;19.21;37.49;97083.84;10324639;28;20517;-53
2022/05/01 04:04:59;;;;;;;9.13;6.97;;;;;;;19.19;37.66;97086.06;10326298;28;20065;-52
2022/05/01 04:10:19;;;;;;;8.27;6.93;;;;;;;19.16;37.57;97088.28;10327046;28;20054;-52
2022/05/01 04:15:40;;;;;;;8.00;6.70;;;;;;;19.13;37.74;97096.22;10322612;28;20067;-51
2022/05/01 04:21:00;;;;;;;8.32;7.38;;;;;;;19.13;37.70;97099.72;10328588;28;20100;-53
2022/05/01 04:26:19;;;;;;;7.90;7.00;;;;;;;19.12;37.58;97091.94;10327065;28;20051;-53
2022/05/01 04:31:38;;;;;;;7.85;7.05;;;;;;;19.11;37.58;97109.22;10326038;28;20058;-52
2022/05/01 04:36:58;;;;;;;7.68;6.88;;;;;;;19.10;37.67;97103.03;10323733;28;20639;-52
2022/05/01 04:42:18;;;;;;;8.63;7.25;;;;;;;19.09;37.77;97114.97;10328783;28;20112;-50
2022/05/01 04:47:38;;;;;;;9.15;7.07;;;;;;;19.09;37.68;97112.28;10326343;28;20116;-52
2022/05/01 04:53:01;;;;;;;8.30;6.82;;;;;;;19.08;37.70;97116.06;10301708;28;20086;-49
2022/05/01 04:58:21;;;;;;;8.35;7.43;;;;;;;19.09;37.94;97123.06;10334310;28;20046;-51
2022/05/01 05:03:41;;;;;;;8.98;7.30;;;;;;;19.09;37.68;97119.56;10322399;28;20082;-53
2022/05/01 05:14:38;;;;;;;7.50;6.80;;;;;;;19.11;37.82;97125.44;10324614;28;20056;-49
2022/05/01 05:19:58;;;;;;;8.07;7.03;;;;;;;19.11;37.73;97122.72;10336888;28;20042;-52
2022/05/01 05:25:20;;;;;;;8.45;6.68;;;;;;;19.13;37.72;97126.72;10337917;28;20262;-50
2022/05/01 05:30:39;;;;;;;7.70;6.88;;;;;;;19.15;37.53;97132.63;10324286;28;20050;-52
2022/05/01 05:35:59;;;;;;;7.90;6.78;;;;;;;19.17;37.81;97132.31;10326423;28;20054;-53
2022/05/01 05:41:18;;;;;;;8.18;7.00;;;;;;;19.17;38.06;97138.50;10330080;28;20045;-51
2022/05/01 05:46:38;;;;;;;8.18;7.07;;;;;;;19.20;38.10;97149.78;10330082;28;20054;-52
2022/05/01 05:51:58;;;;;;;8.90;7.30;;;;;;;19.22;38.33;97151.06;10333531;28;20066;-52
2022/05/01 05:57:18;;;;;;;7.70;6.75;;;;;;;19.24;38.04;97161.56;10311389;28;20584;-53
2022/05/01 06:02:37;;;;;;;9.50;6.78;;;;;;;19.25;38.05;97155.84;10324178;28;20074;-50
2022/05/01 06:07:56;;;;;;;7.90;7.05;;;;;;;19.28;38.04;97162.50;10331288;28;20046;-52
2022/05/01 06:13:16;;;;;;;8.23;6.93;;;;;;;19.32;37.92;97166.19;10313768;28;20054;-50
2022/05/01 06:18:35;;;;;;;8.13;7.25;;;;;;;19.34;37.91;97172.84;10334048;28;20050;-52
2022/05/01 06:23:55;;;;;;;26.33;18.27;;;;;;;18.82;32.54;97169.16;10320561;28;20061;-52
2022/05/01 06:29:14;;;;;;;29.05;21.23;;;;;;;18.41;32.52;97183.66;10319701;28;20490;-51
2022/05/01 06:34:35;;;;;;;32.40;22.33;;;;;;;-146.19;100.00;65364.44;10325084;28;20050;-52
2022/05/01 06:39:54;;;;;;;29.92;21.98;;;;;;;-146.19;100.00;65364.44;10296745;28;20062;-51
2022/05/01 06:45:13;;;;;;;28.65;23.27;;;;;;;-146.19;100.00;65364.44;10319178;28;20055;-49
2022/05/01 06:50:33;;;;;;;31.27;24.17;;;;;;;-146.19;100.00;65364.44;10317606;28;20050;-52
2022/05/01 06:55:55;;;;;;;31.98;25.30;;;;;;;-146.19;100.00;65364.44;10300594;28;20693;-52
2022/05/01 07:01:15;;;;;;;25.58;22.38;;;;;;;-146.19;100.00;65364.44;10298857;28;20363;-50
2022/05/01 07:06:34;;;;;;;28.83;19.95;;;;;;;18.36;34.75;97171.88;10319298;28;20057;-49
2022/05/01 07:11:54;;;;;;;24.95;19.05;;;;;;;18.66;35.31;97174.13;10321661;28;20457;-50
2022/05/01 07:17:15;;;;;;;24.13;18.45;;;;;;;18.87;35.68;97174.41;10314729;28;20065;-49
2022/05/01 07:22:35;;;;;;;20.83;17.10;;;;;;;19.01;35.75;97172.41;10315723;28;20050;-52
2022/05/01 07:27:55;;;;;;;22.65;17.15;;;;;;;19.13;35.93;97177.22;10307774;28;20133;-51
2022/05/01 07:33:16;;;;;;;21.33;15.95;;;;;;;19.24;36.21;97175.84;10320189;28;20469;-51
2022/05/01 07:38:35;;;;;;;20.60;16.27;;;;;;;19.32;36.63;97176.97;10325142;28;20054;-50
2022/05/01 07:43:58;;;;;;;21.95;15.82;;;;;;;19.39;37.01;97181.94;10324045;28;20478;-49
2022/05/01 07:49:18;;;;;;;18.20;15.48;;;;;;;19.39;37.01;97181.94;10317707;28;20051;-51
2022/05/01 07:54:37;;;;;;;20.23;15.73;;;;;;;19.53;37.46;97169.09;10315207;28;20049;-53
2022/05/01 07:59:57;;;;;;;20.02;14.80;;;;;;;19.59;37.58;97167.03;10326423;28;20564;-51
2022/05/01 08:05:16;;;;;;;18.50;14.88;;;;;;;19.64;37.92;97165.00;10326328;28;20062;-50
2022/05/01 08:10:35;;;;;;;19.23;14.95;;;;;;;19.70;38.11;97160.25;10329681;28;20452;-50
2022/05/01 08:15:54;;;;;;;22.77;14.18;;;;;;;19.77;38.43;97165.19;10326649;28;20128;-50
2022/05/01 08:21:16;;;;;;;19.58;14.25;;;;;;;19.80;38.60;97164.53;10327241;28;20050;-50
2022/05/01 08:26:36;;;;;;;16.25;13.48;;;;;;;19.86;38.76;97166.78;10338796;28;20050;-51
2022/05/01 08:31:55;;;;;;;16.40;13.82;;;;;;;19.87;38.71;97160.25;10333557;28;20050;-49
2022/05/01 08:37:15;;;;;;;16.58;12.52;;;;;;;19.93;38.63;97155.50;10308947;28;20058;-50
2022/05/01 08:42:36;;;;;;;15.63;12.18;;;;;;;19.97;38.73;97152.94;10323044;28;20054;-50
2022/05/01 08:48:00;;;;;;;17.42;12.07;;;;;;;20.00;38.52;97149.63;10338425;28;20049;-50
2022/05/01 08:53:22;;;;;;;18.33;12.88;;;;;;;20.00;36.19;97149.63;10328861;28;20057;-52
2022/05/01 08:58:42;;;;;;;15.32;12.48;;;;;;;19.96;34.23;97152.16;10328471;28;20054;-50
2022/05/01 09:04:06;;;;;;;16.23;12.32;;;;;;;19.90;33.28;97143.41;10321286;28;20046;-50
2022/05/01 09:09:30;;;;;;;15.50;11.77;;;;;;;19.88;32.97;97151.06;10341746;28;20148;-53
2022/05/01 09:14:50;;;;;;;14.63;11.15;;;;;;;19.86;33.11;97147.88;10340355;28;20129;-51
2022/05/01 09:20:10;;;;;;;17.95;11.50;;;;;;;19.86;32.54;97142.47;10331077;28;20054;-53
2022/05/01 09:25:30;;;;;;;14.07;10.85;;;;;;;19.87;32.53;97151.34;10322529;28;20137;-53
2022/05/01 09:30:49;;;;;;;12.10;10.15;;;;;;;19.88;32.99;97144.84;10314688;28;20058;-53
2022/05/01 09:36:37;;;;;;;14.20;9.98;;;;;;;19.91;32.64;97145.00;10321244;28;20402;-51
2022/05/01 09:42:19;;;;;;;13.13;10.47;;;;;;;19.92;32.14;97143.88;10315909;28;20046;-53
2022/05/01 09:47:43;;;;;;;13.65;9.63;;;;;;;19.93;32.35;97148.19;10335911;28;20046;-52
2022/05/01 09:53:03;;;;;;;13.45;9.43;;;;;;;19.95;32.61;97151.38;10358240;28;20048;-53
2022/05/01 09:58:30;;;;;;;11.98;8.77;;;;;;;19.97;32.34;97147.53;10351237;28;20422;-50
2022/05/01 10:03:52;;;;;;;10.35;8.13;;;;;;;19.97;31.75;97147.53;10331934;28;20136;-53
2022/05/01 10:09:12;;;;;;;10.50;8.60;;;;;;;19.98;31.88;97149.16;10331355;28;20062;-53
2022/05/01 10:14:32;;;;;;;9.43;7.30;;;;;;;20.00;31.79;97136.91;10326665;28;20101;-53
2022/05/01 10:19:51;;;;;;;12.40;8.63;;;;;;;20.02;31.63;97128.47;10343210;28;20049;-53
2022/05/01 10:25:16;;;;;;;11.73;8.60;;;;;;;20.03;31.40;97130.03;10328513;28;20043;-50
2022/05/01 10:36:41;;;;;;;10.65;8.20;;;;;;;20.07;31.89;97120.19;10302514;28;20058;-52
2022/05/01 10:42:01;;;;;;;10.68;8.27;;;;;;;20.11;32.17;97115.72;10322538;28;20045;-54
2022/05/01 10:47:35;;;;;;;10.70;7.78;;;;;;;20.12;31.43;97109.19;10344809;28;20049;-52
2022/05/01 10:53:16;;;;;;;11.10;7.45;;;;;;;20.14;31.86;97105.06;10328023;28;20100;-53
2022/05/01 10:58:36;;;;;;;9.70;7.55;;;;;;;20.19;32.02;97114.13;10320967;28;20078;-53
2022/05/01 11:03:55;;;;;;;9.80;7.30;;;;;;;20.20;31.93;97105.69;10330690;28;20413;-52
2022/05/01 11:09:19;;;;;;;11.30;8.05;;;;;;;20.22;31.97;97103.44;10352558;28;20034;-51
2022/05/01 11:14:49;;;;;;;13.25;8.25;;;;;;;20.23;32.32;97094.25;10348872;28;20062;-53
2022/05/01 11:20:14;;;;;;;19.25;14.85;;;;;;;20.26;32.80;97085.47;10330336;28;20140;-53
2022/05/01 11:25:38;;;;;;;24.55;15.27;;;;;;;20.25;33.81;97086.59;10309299;28;20479;-53
2022/05/01 11:30:58;;;;;;;13.95;11.07;;;;;;;20.25;33.71;97094.72;10352224;28;20057;-53
2022/05/01 11:36:17;;;;;;;13.63;9.85;;;;;;;20.30;33.15;97091.03;10326829;28;20050;-53
2022/05/01 11:41:44;;;;;;;13.00;7.97;;;;;;;20.32;32.55;97095.00;10333356;28;20481;-53
2022/05/01 11:47:05;;;;;;;11.45;7.80;;;;;;;20.34;32.56;97091.97;10318263;28;20054;-49
2022/05/01 11:52:25;;;;;;;10.18;7.97;;;;;;;20.36;32.60;97084.31;10332928;28;20047;-52
2022/05/01 12:03:36;;;;;;;11.65;7.85;;;;;;;20.35;32.77;97078.13;10332928;28;20042;-51
2022/05/01 12:08:55;;;;;;;9.93;7.18;;;;;;;20.34;32.66;97064.91;10339680;28;20532;-52
2022/05/01 12:14:14;;;;;;;8.93;6.45;;;;;;;20.35;32.06;97071.94;10320331;28;20050;-53
2022/05/01 12:19:35;;;;;;;7.55;5.63;;;;;;;20.36;33.01;97065.38;10334245;28;20042;-53
2022/05/01 12:24:55;;;;;;;9.90;6.30;;;;;;;20.36;33.39;97062.69;10329005;28;20042;-53
2022/05/01 12:30:15;;;;;;;8.45;6.50;;;;;;;20.36;33.31;97051.84;10339708;28;20148;-51
2022/05/01 12:35:55;;;;;;;8.80;6.35;;;;;;;20.37;32.14;97047.25;10344049;28;20050;-53
2022/05/01 12:46:53;;;;;;;8.60;5.25;;;;;;;20.41;32.84;97045.50;10358781;28;20420;-51
2022/05/01 12:52:31;;;;;;;6.75;5.00;;;;;;;20.42;32.79;97044.34;10352775;28;20058;-53
2022/05/01 12:57:57;;;;;;;10.60;5.45;;;;;;;20.41;33.15;97035.47;10297772;28;20398;-53
2022/05/01 13:03:18;;;;;;;7.45;4.53;;;;;;;20.42;33.51;97037.03;10334479;28;20064;-53
2022/05/01 13:08:48;;;;;;;7.22;4.15;;;;;;;20.45;33.52;97041.03;10334223;28;20050;-53
2022/05/01 13:14:09;;;;;;;10.18;4.40;;;;;;;20.45;33.70;97024.78;10298457;28;20129;-53
2022/05/01 13:19:29;;;;;;;5.30;4.30;;;;;;;20.47;33.80;97022.53;10325636;28;20077;-53
2022/05/01 13:24:53;;;;;;;6.35;4.50;;;;;;;20.47;33.57;97020.63;10359596;28;20042;-52
2022/05/01 13:30:13;;;;;;;7.30;4.68;;;;;;;20.48;33.73;97013.28;10332583;28;20050;-52
2022/05/01 13:35:32;;;;;;;7.57;4.18;;;;;;;20.48;33.86;97011.41;10335281;28;20498;-53
2022/05/01 13:46:30;;;;;;;;;;;;;;;20.52;32.49;97003.41;10359605;28;20044;-52
2022/05/01 13:51:50;;;;;;;6.65;4.63;;;;;;;20.53;31.67;96999.59;10335578;28;20272;-53
2022/05/01 13:57:09;;;;;;;8.50;4.43;;;;;;;20.50;32.04;96997.53;10333686;28;20053;-53
2022/05/01 14:02:28;;;;;;;7.22;4.47;;;;;;;20.49;32.31;96991.31;10333399;28;20046;-54
2022/05/01 14:07:47;;;;;;;6.47;4.22;;;;;;;20.48;33.04;96991.66;10313364;28;20490;-53
2022/05/01 14:13:07;;;;;;;7.13;3.97;;;;;;;20.47;33.08;96996.28;10332807;28;20477;-53
2022/05/01 14:18:29;;;;;;;12.20;3.85;;;;;;;20.49;34.03;96985.91;10334160;28;21077;-52
2022/05/01 14:23:48;;;;;;;8.05;4.05;;;;;;;20.49;34.55;96985.91;10348155;28;20123;-52
2022/05/01 14:29:08;;;;;;;7.80;4.40;;;;;;;20.49;33.03;96985.13;10312276;28;20058;-51
2022/05/01 14:34:42;;;;;;;8.05;4.05;;;;;;;20.49;33.12;96977.00;10317061;28;20052;-53
2022/05/01 14:40:03;;;;;;;3.88;3.30;;;;;;;20.49;32.89;96971.59;10330635;28;20560;-53
2022/05/01 14:45:26;;;;;;;5.15;3.75;;;;;;;20.48;32.61;96965.41;10316700;28;20126;-53
2022/05/01 14:50:45;;;;;;;5.60;3.60;;;;;;;20.47;32.08;96960.31;10335933;28;20501;-50
2022/05/01 14:56:06;;;;;;;4.15;3.75;;;;;;;20.47;32.26;96965.72;10315298;28;20093;-53
2022/05/01 15:07:06;;;;;;;4.60;3.55;;;;;;;20.45;32.26;96966.03;10318405;28;20409;-53
2022/05/01 15:12:26;;;;;;;7.60;4.05;;;;;;;20.44;32.37;96969.06;10331663;28;20057;-53
2022/05/01 15:17:52;;;;;;;5.80;3.30;;;;;;;20.43;33.08;96972.91;10328017;28;20062;-54
2022/05/01 15:23:44;;;;;;;6.20;3.60;;;;;;;20.41;33.63;96969.72;10296686;28;20486;-53
2022/05/01 15:29:04;;;;;;;5.05;3.40;;;;;;;20.41;33.86;96985.97;10326323;28;20054;-53
2022/05/01 15:34:33;;;;;;;5.38;3.53;;;;;;;20.40;33.92;96977.03;10330602;28;20061;-53
2022/05/01 15:40:02;;;;;;;4.18;3.13;;;;;;;20.39;33.43;96971.97;10348515;28;20497;-54
2022/05/01 15:45:22;;;;;;;4.30;3.67;;;;;;;20.40;32.46;96976.25;10340735;28;20425;-52
2022/05/01 15:56:25;;;;;;;5.25;3.72;;;;;;;20.36;34.36;96973.38;10330427;28;20058;-53
2022/05/01 16:01:45;;;;;;;8.35;3.60;;;;;;;20.36;33.50;96976.09;10335393;28;20493;-53
2022/05/01 16:07:08;;;;;;;7.50;3.90;;;;;;;20.35;31.37;96977.22;10338778;28;20054;-54
2022/05/01 16:12:44;;;;;;;5.25;3.47;;;;;;;20.32;30.93;96970.53;10310925;28;20050;-53
2022/05/01 16:18:25;;;;;;;6.35;3.53;;;;;;;20.29;32.21;96983.94;10341198;28;20113;-54
2022/05/01 16:24:10;;;;;;;5.57;3.35;;;;;;;20.27;33.52;96981.56;10319270;28;20071;-54
2022/05/01 16:29:53;;;;;;;4.07;3.35;;;;;;;20.27;34.24;97000.50;10327098;28;20066;-51
2022/05/01 16:35:13;;;;;;;3.90;3.40;;;;;;;20.27;34.46;97003.19;10324195;28;20062;-54
2022/05/01 16:40:33;;;;;;;5.00;3.13;;;;;;;20.26;34.63;97007.00;10312518;28;20050;-54
2022/05/01 16:45:53;;;;;;;6.80;3.83;;;;;;;20.26;35.07;97004.31;10323420;28;20528;-52
2022/05/01 16:51:15;;;;;;;9.77;5.75;;;;;;;20.27;35.30;97005.13;10347351;28;20515;-53
2022/05/01 16:56:35;;;;;;;9.23;5.85;;;;;;;20.27;35.89;96999.72;10340512;28;20050;-53
2022/05/01 17:01:56;;;;;;;11.18;6.00;;;;;;;20.26;36.63;97004.31;10330553;28;20104;-53
2022/05/01 17:07:39;;;;;;;6.55;5.00;;;;;;;20.26;36.78;96998.88;10327035;28;20132;-53
2022/05/01 17:13:15;;;;;;;9.00;5.28;;;;;;;20.25;36.57;97015.47;10340528;28;20057;-53
2022/05/01 17:18:52;;;;;;;9.93;5.18;;;;;;;20.25;37.22;97010.84;10334638;28;20604;-53
2022/05/01 17:24:14;;;;;;;9.13;5.07;;;;;;;20.24;38.09;97013.88;10315906;28;20046;-53
2022/05/01 17:30:03;;;;;;;6.75;4.72;;;;;;;20.23;39.15;97007.66;10333662;28;20105;-53
2022/05/01 17:35:25;;;;;;;8.70;4.55;;;;;;;20.25;39.21;97013.56;10318911;28;20046;-52
2022/05/01 17:40:45;;;;;;;7.22;4.65;;;;;;;20.24;40.06;97011.16;10327853;28;20073;-53
2022/05/01 17:46:06;;;;;;;7.28;4.68;;;;;;;20.24;39.88;97020.06;10343367;28;20122;-51
2022/05/01 17:51:25;;;;;;;6.07;4.18;;;;;;;20.23;39.28;97020.38;10341504;28;20057;-49
2022/05/01 17:56:45;;;;;;;9.57;4.60;;;;;;;20.21;39.42;97020.72;10329124;28;20053;-48
2022/05/01 18:02:13;;;;;;;9.25;4.22;;;;;;;20.22;39.57;97018.81;10329635;28;20046;-48
2022/05/01 18:13:49;;;;;;;4.97;3.42;;;;;;;20.20;39.29;97023.75;10331124;28;20070;-51
2022/05/01 18:19:25;;;;;;;5.80;3.47;;;;;;;20.20;39.20;97023.75;10333844;28;20054;-52
2022/05/01 18:25:06;;;;;;;5.50;3.75;;;;;;;20.16;39.42;97031.72;10326714;28;20061;-52
2022/05/01 18:30:31;;;;;;;6.68;4.45;;;;;;;20.17;39.32;97036.00;10326754;28;20050;-50
2022/05/01 18:36:05;;;;;;;5.30;4.05;;;;;;;20.14;39.57;97034.72;10319923;28;20058;-52
2022/05/01 18:41:32;;;;;;;7.07;4.55;;;;;;;20.14;40.02;97045.53;10303649;28;20065;-53
2022/05/01 18:46:54;;;;;;;7.25;4.40;;;;;;;20.14;39.43;97039.34;10330082;28;20069;-52
2022/05/01 18:52:15;;;;;;;5.88;4.63;;;;;;;20.14;39.49;97039.34;10323760;28;20057;-53
2022/05/01 18:57:36;;;;;;;6.65;4.60;;;;;;;20.12;39.37;97042.38;10326460;28;20058;-53
2022/05/01 19:02:55;;;;;;;6.38;4.30;;;;;;;20.11;39.61;97034.56;10319845;28;20042;-52
2022/05/01 19:08:40;;;;;;;5.75;4.20;;;;;;;20.11;39.63;97031.88;10336731;28;20042;-53
2022/05/01 19:14:25;;;;;;;6.55;5.00;;;;;;;20.11;39.43;97040.81;10314568;28;20502;-53
2022/05/01 19:20:07;;;;;;;4.95;4.40;;;;;;;20.10;39.63;97033.00;10337096;28;20039;-53
2022/05/01 19:31:28;;;;;;;5.03;4.53;;;;;;;20.09;39.83;97047.63;10312562;28;20052;-53
2022/05/01 19:37:00;;;;;;;5.22;4.53;;;;;;;20.09;40.05;97055.75;10305175;28;20047;-52
2022/05/01 19:42:34;;;;;;;5.32;4.70;;;;;;;20.08;40.06;97056.88;10324964;28;20038;-53
2022/05/01 19:53:54;;;;;;;5.45;4.28;;;;;;;20.05;40.13;97057.50;10323990;28;20050;-50
2022/05/01 19:59:15;;;;;;;5.38;4.47;;;;;;;20.05;40.42;97060.19;10323695;28;20054;-50
2022/05/01 20:04:35;;;;;;;7.03;4.80;;;;;;;20.04;41.33;97056.72;10310771;28;20553;-50
2022/05/01 20:09:56;;;;;;;5.80;4.60;;;;;;;20.05;41.40;97057.50;10314364;28;20106;-53
2022/05/01 20:15:22;;;;;;;5.00;4.50;;;;;;;20.05;41.53;97058.31;10311414;28;20058;-52
2022/05/01 20:21:14;;;;;;;6.93;4.65;;;;;;;20.05;41.69;97060.19;10318882;28;20437;-53
2022/05/01 20:26:38;;;;;;;5.13;4.28;;;;;;;20.05;41.24;97058.31;10321326;28;20433;-52
2022/05/01 20:32:13;;;;;;;4.85;4.32;;;;;;;20.04;41.30;97058.63;10328969;28;20038;-53
2022/05/01 20:37:44;;;;;;;4.47;3.90;;;;;;;20.03;41.12;97048.91;10322130;28;20061;-51
2022/05/01 20:43:46;;;;;;;4.22;3.83;;;;;;;20.02;41.16;97052.75;10321536;28;20046;-53
2022/05/01 20:49:22;;;;;;;4.03;3.70;;;;;;;20.01;41.23;97045.72;10313347;28;20438;-53
2022/05/01 20:54:57;;;;;;;4.15;3.75;;;;;;;20.00;41.10;97041.47;10339034;28;20046;-53
2022/05/01 21:00:17;;;;;;;4.95;4.20;;;;;;;19.99;41.01;97043.34;10333867;28;20097;-53
2022/05/01 21:05:38;;;;;;;5.65;4.03;;;;;;;19.98;41.21;97038.28;10327357;28;20046;-53
2022/05/01 21:10:59;;;;;;;4.53;4.03;;;;;;;19.98;41.02;97032.88;10324339;28;20061;-52
2022/05/01 21:16:22;;;;;;;4.70;4.05;;;;;;;19.97;40.78;97026.66;10321166;28;20046;-53
2022/05/01 21:21:42;;;;;;;4.80;4.30;;;;;;;19.95;41.21;97021.59;10330504;28;20046;-53
2022/05/01 21:27:01;;;;;;;4.70;4.20;;;;;;;19.94;41.19;97022.69;10324921;28;20069;-52
2022/05/01 21:32:22;;;;;;;4.35;3.85;;;;;;;19.94;41.08;97024.59;10339906;28;20046;-52
2022/05/01 21:37:41;;;;;;;4.40;4.00;;;;;;;19.94;41.04;97008.38;10319642;28;20062;-53
2022/05/01 21:43:00;;;;;;;4.43;4.03;;;;;;;19.93;41.16;97017.59;10330648;28;20043;-53
2022/05/01 21:48:22;;;;;;;4.13;3.72;;;;;;;19.91;41.15;97017.91;10328044;28;20053;-50
2022/05/01 21:53:42;;;;;;;5.03;4.15;;;;;;;19.91;41.06;97015.19;10330900;28;20050;-53
2022/05/01 21:59:03;;;;;;;4.78;4.38;;;;;;;19.89;41.01;97012.03;10340660;28;20051;-53
2022/05/01 22:04:24;;;;;;;5.28;4.22;;;;;;;19.89;41.03;97017.44;10316269;28;20046;-53
2022/05/01 22:09:43;;;;;;;4.90;4.07;;;;;;;19.88;41.06;97023.97;10328635;28;20050;-53
2022/05/01 22:15:04;;;;;;;4.28;3.92;;;;;;;19.89;41.09;97025.53;10331269;28;20054;-53
2022/05/01 22:20:24;;;;;;;4.32;3.92;;;;;;;19.88;41.05;97025.88;10326255;28;20514;-53
2022/05/01 22:25:43;;;;;;;4.28;3.88;;;;;;;19.87;41.13;97024.28;10344730;28;20046;-48
2022/05/01 22:31:03;;;;;;;4.43;4.03;;;;;;;19.85;41.08;97019.19;10312072;28;20420;-51
2022/05/01 22:42:00;;;;;;;4.43;4.03;;;;;;;19.83;41.04;97007.91;10320193;28;20498;-51
2022/05/01 22:47:20;;;;;;;4.50;3.97;;;;;;;19.82;41.09;97011.75;10312318;28;20050;-51
2022/05/01 22:52:39;;;;;;;4.57;4.18;;;;;;;19.82;41.14;97006.34;10324725;28;20073;-51
2022/05/01 22:57:59;;;;;;;6.03;4.38;;;;;;;19.81;41.01;97007.44;10313614;28;20039;-49
2022/05/01 23:03:19;;;;;;;4.68;4.28;;;;;;;19.82;41.07;97013.66;10312599;28;20047;-48
2022/05/01 23:08:39;;;;;;;4.05;3.65;;;;;;;19.80;41.09;97010.44;10326612;28;20054;-51
2022/05/01 23:13:59;;;;;;;4.07;3.78;;;;;;;19.80;41.03;97008.56;10313039;28;20061;-48
2022/05/01 23:19:19;;;;;;;4.38;3.97;;;;;;;19.78;41.15;97010.78;10327967;28;20413;-49
2022/05/01 23:24:38;;;;;;;4.30;3.90;;;;;;;19.77;41.16;96998.38;10312378;28;20516;-50
2022/05/01 23:35:37;;;;;;;5.10;4.53;;;;;;;19.75;40.95;97004.09;10313668;28;20125;-51
2022/05/01 23:40:57;;;;;;;4.35;3.97;;;;;;;19.74;41.00;96999.03;10320168;28;20066;-51
2022/05/01 23:46:16;;;;;;;5.50;4.57;;;;;;;19.74;41.05;96999.81;10320373;28;20058;-51
2022/05/01 23:51:35;;;;;;;4.50;4.10;;;;;;;19.73;41.00;96997.44;10316385;28;20051;-50
2022/05/01 23:56:54;;;;;;;4.53;4.00;;;;;;;19.72;41.14;96993.16;10317472;28;20038;-51
